createdAt,value
2018-07-05T00:00:06.509Z,79.10
2018-07-05T00:02:45.298Z,79.00
2018-07-05T00:05:24.683Z,78.60
2018-07-05T00:08:07.175Z,78.30
2018-07-05T00:10:45.896Z,78.00
2018-07-05T00:13:24.795Z,78.10
2018-07-05T00:16:06.873Z,77.70
2018-07-05T00:18:50.444Z,77.80
2018-07-05T00:21:29.226Z,77.90
2018-07-05T00:24:08.128Z,78.00
2018-07-05T00:26:47.054Z,78.40
2018-07-05T00:29:25.680Z,78.50
2018-07-05T00:32:04.398Z,78.20
2018-07-05T00:34:43.295Z,78.40
2018-07-05T00:40:08.069Z,77.80
2018-07-05T00:42:46.898Z,77.70
2018-07-05T00:45:31.739Z,78.00
2018-07-05T00:48:10.479Z,78.30
2018-07-05T00:50:49.694Z,78.40
2018-07-05T00:56:01.384Z,78.20
2018-07-05T00:58:40.017Z,78.10
2018-07-05T01:01:19.844Z,78.00
2018-07-05T01:03:58.665Z,78.50
2018-07-05T01:09:23.423Z,78.90
2018-07-05T01:12:02.283Z,79.30
2018-07-05T01:14:42.127Z,79.40
2018-07-05T01:17:20.974Z,79.60
2018-07-05T01:20:00.218Z,80.40
2018-07-05T01:22:39.169Z,81.10
2018-07-05T01:25:18.015Z,81.40
2018-07-05T01:33:28.742Z,81.10
2018-07-05T01:36:07.603Z,81.20
2018-07-05T01:38:47.183Z,80.90
2018-07-05T01:41:25.944Z,80.90
2018-07-05T01:44:04.665Z,80.80
2018-07-05T01:46:43.549Z,80.70
2018-07-05T01:49:22.409Z,80.90
2018-07-05T01:54:46.675Z,80.10
2018-07-05T01:57:25.471Z,79.80
2018-07-05T02:00:04.210Z,79.70
2018-07-05T02:02:43.081Z,80.10
2018-07-05T02:05:22.078Z,79.80
2018-07-05T02:08:00.958Z,79.80
2018-07-05T02:10:39.782Z,79.90
2018-07-05T02:13:18.718Z,80.10
2018-07-05T02:15:57.659Z,80.10
2018-07-05T02:24:08.305Z,80.80
2018-07-05T02:26:47.058Z,80.60
2018-07-05T02:29:25.805Z,81.10
2018-07-05T02:32:05.344Z,80.80
2018-07-05T02:34:44.195Z,80.80
2018-07-05T02:37:23.072Z,81.20
2018-07-05T02:40:01.816Z,81.30
2018-07-05T02:42:40.490Z,80.90
2018-07-05T02:45:19.469Z,80.90
2018-07-05T02:47:58.267Z,81.20
2018-07-05T02:50:37.883Z,81.10
2018-07-05T02:53:16.640Z,81.10
2018-07-05T02:55:55.463Z,81.00
2018-07-05T02:58:34.301Z,80.80
2018-07-05T03:01:13.061Z,81.10
2018-07-05T03:03:51.811Z,81.10
2018-07-05T03:06:30.559Z,80.90
2018-07-05T03:09:09.447Z,81.00
2018-07-05T03:11:48.768Z,81.30
2018-07-05T03:14:27.738Z,81.10
2018-07-05T03:19:54.235Z,80.80
2018-07-05T03:25:05.805Z,80.80
2018-07-05T03:27:44.453Z,80.50
2018-07-05T03:30:23.212Z,79.80
2018-07-05T03:33:02.150Z,79.70
2018-07-05T03:35:41.003Z,79.80
2018-07-05T03:38:19.711Z,79.70
2018-07-05T03:40:58.576Z,79.70
2018-07-05T03:43:37.431Z,79.90
2018-07-05T03:46:16.296Z,80.20
2018-07-05T03:48:55.067Z,80.40
2018-07-05T03:51:33.761Z,80.40
2018-07-05T03:54:12.588Z,80.70
2018-07-05T03:56:51.220Z,80.70
2018-07-05T03:59:29.972Z,80.80
2018-07-05T04:02:08.900Z,80.70
2018-07-05T04:04:47.705Z,81.10
2018-07-05T04:07:26.425Z,81.40
2018-07-05T04:10:05.162Z,81.30
2018-07-05T04:12:44.073Z,81.50
2018-07-05T04:15:22.909Z,81.00
2018-07-05T04:18:01.690Z,80.70
2018-07-05T04:20:40.536Z,80.30
2018-07-05T04:23:19.281Z,80.20
2018-07-05T04:25:58.166Z,79.90
2018-07-05T04:28:36.937Z,79.60
2018-07-05T04:31:15.746Z,79.50
2018-07-05T04:33:54.633Z,79.60
2018-07-05T04:36:33.371Z,79.80
2018-07-05T04:39:12.196Z,80.00
2018-07-05T04:41:51.048Z,79.90
2018-07-05T04:44:29.872Z,79.70
2018-07-05T04:47:08.521Z,80.10
2018-07-05T04:49:47.377Z,80.00
2018-07-05T04:52:26.127Z,79.60
2018-07-05T04:55:05.287Z,79.10
2018-07-05T04:57:43.976Z,79.50
2018-07-05T05:00:22.787Z,79.50
2018-07-05T05:03:01.560Z,79.20
2018-07-05T05:05:40.418Z,79.00
2018-07-05T05:08:19.132Z,78.70
2018-07-05T05:10:58.005Z,78.40
2018-07-05T05:16:09.596Z,78.30
2018-07-05T05:18:48.491Z,78.20
2018-07-05T05:21:27.164Z,77.60
2018-07-05T05:24:05.967Z,77.20
2018-07-05T05:26:44.806Z,76.90
2018-07-05T05:29:23.640Z,76.50
2018-07-05T05:32:02.385Z,76.10
2018-07-05T05:34:41.114Z,75.80
2018-07-05T05:37:19.942Z,75.80
2018-07-05T05:39:58.775Z,76.30
2018-07-05T05:42:37.581Z,75.70
2018-07-05T05:45:16.241Z,75.50
2018-07-05T05:47:55.027Z,75.70
2018-07-05T05:50:33.876Z,75.60
2018-07-05T05:53:12.692Z,76.20
2018-07-05T05:55:51.436Z,77.10
2018-07-05T05:58:30.376Z,78.40
2018-07-05T06:01:09.017Z,79.00
2018-07-05T06:03:47.729Z,78.90
2018-07-05T06:06:26.428Z,78.60
2018-07-05T06:09:05.376Z,78.30
2018-07-05T06:11:44.276Z,77.70
2018-07-05T06:14:22.992Z,77.40
2018-07-05T06:17:01.824Z,77.60
2018-07-05T06:19:40.647Z,77.50
2018-07-05T06:22:19.502Z,77.70
2018-07-05T06:24:58.159Z,77.50
2018-07-05T06:27:36.976Z,77.30
2018-07-05T06:30:16.103Z,76.90
2018-07-05T06:32:54.852Z,76.70
2018-07-05T06:35:33.726Z,76.40
2018-07-05T06:38:12.407Z,76.70
2018-07-05T06:40:51.265Z,76.40
2018-07-05T06:43:30.416Z,76.00
2018-07-05T06:46:08.993Z,75.70
2018-07-05T06:48:47.767Z,76.50
2018-07-05T06:51:26.646Z,76.50
2018-07-05T06:54:05.491Z,76.40
2018-07-05T06:56:44.336Z,74.90
2018-07-05T06:59:23.181Z,75.10
2018-07-05T07:02:01.988Z,74.80
2018-07-05T07:04:40.859Z,75.70
2018-07-05T07:07:19.765Z,76.20
2018-07-05T07:09:58.572Z,76.30
2018-07-05T07:12:37.396Z,76.00
2018-07-05T07:15:16.182Z,75.50
2018-07-05T07:17:54.932Z,74.50
2018-07-05T07:20:33.702Z,74.20
2018-07-05T07:23:12.485Z,73.90
2018-07-05T07:25:51.256Z,73.90
2018-07-05T07:28:30.190Z,73.40
2018-07-05T07:31:08.955Z,72.80
2018-07-05T07:33:47.753Z,73.40
2018-07-05T07:36:26.720Z,73.20
2018-07-05T07:39:05.520Z,72.80
2018-07-05T07:41:41.991Z,72.70
2018-07-05T07:44:08.364Z,72.50
2018-07-05T07:46:34.707Z,71.80
2018-07-05T07:49:01.066Z,71.80
2018-07-05T07:51:27.436Z,72.20
2018-07-05T07:53:53.784Z,71.90
2018-07-05T07:56:20.155Z,71.20
2018-07-05T07:58:46.534Z,70.40
2018-07-05T08:01:12.926Z,70.50
2018-07-05T08:03:39.273Z,70.30
2018-07-05T08:06:05.658Z,69.30
2018-07-05T08:08:32.038Z,68.30
2018-07-05T08:10:58.387Z,70.80
2018-07-05T08:13:24.755Z,72.20
2018-07-05T08:15:51.142Z,72.40
2018-07-05T08:18:17.549Z,72.60
2018-07-05T08:20:43.903Z,73.30
2018-07-05T08:25:36.980Z,73.50
2018-07-05T08:28:03.332Z,73.50
2018-07-05T08:30:29.699Z,73.10
2018-07-05T08:32:56.071Z,73.20
2018-07-05T08:35:22.440Z,73.20
2018-07-05T08:37:48.796Z,73.10
2018-07-05T08:40:15.155Z,73.50
2018-07-05T08:42:41.565Z,72.90
2018-07-05T08:45:07.913Z,72.80
2018-07-05T08:47:34.276Z,72.20
2018-07-05T08:50:00.634Z,72.60
2018-07-05T08:52:27.009Z,71.70
2018-07-05T08:54:53.355Z,71.70
2018-07-05T08:57:19.700Z,70.80
2018-07-05T08:59:46.076Z,70.80
2018-07-05T09:02:12.416Z,70.90
2018-07-05T09:04:38.789Z,70.70
2018-07-05T09:07:05.157Z,70.30
2018-07-05T09:09:31.506Z,69.70
2018-07-05T09:11:58.015Z,68.90
2018-07-05T09:14:24.219Z,69.50
2018-07-05T09:16:50.604Z,69.10
2018-07-05T09:19:16.963Z,68.40
2018-07-05T09:21:43.346Z,70.10
2018-07-05T09:24:09.687Z,69.90
2018-07-05T09:26:36.064Z,70.50
2018-07-05T09:29:02.403Z,70.60
2018-07-05T09:31:28.752Z,71.40
2018-07-05T09:33:55.116Z,70.50
2018-07-05T09:36:21.489Z,70.30
2018-07-05T09:38:47.886Z,69.30
2018-07-05T09:41:14.227Z,69.10
2018-07-05T09:43:40.608Z,69.60
2018-07-05T09:46:06.963Z,69.20
2018-07-05T09:48:33.344Z,68.50
2018-07-05T09:50:59.722Z,68.50
2018-07-05T09:53:26.075Z,67.90
2018-07-05T09:55:52.440Z,68.30
2018-07-05T09:58:18.818Z,67.90
2018-07-05T10:00:45.176Z,65.90
2018-07-05T10:03:11.531Z,65.70
2018-07-05T10:05:37.926Z,65.10
2018-07-05T10:08:04.272Z,64.10
2018-07-05T10:10:30.619Z,64.20
2018-07-05T10:12:56.996Z,64.40
2018-07-05T10:15:23.388Z,64.60
2018-07-05T10:17:49.754Z,64.80
2018-07-05T10:20:16.112Z,66.10
2018-07-05T10:22:42.462Z,65.70
2018-07-05T10:25:08.825Z,65.00
2018-07-05T10:27:35.176Z,64.50
2018-07-05T10:30:13.896Z,65.40
2018-07-05T10:32:52.789Z,66.10
2018-07-05T10:35:19.141Z,66.20
2018-07-05T10:37:45.483Z,65.30
2018-07-05T10:40:24.309Z,65.50
2018-07-05T10:43:03.211Z,65.30
2018-07-05T10:45:42.140Z,64.10
2018-07-05T10:48:20.987Z,63.80
2018-07-05T10:50:59.796Z,63.50
2018-07-05T10:53:38.758Z,63.60
2018-07-05T10:56:17.971Z,63.40
2018-07-05T10:58:56.774Z,62.90
2018-07-05T11:01:35.560Z,63.60
2018-07-05T11:04:14.540Z,63.90
2018-07-05T11:06:53.558Z,63.60
2018-07-05T11:09:32.274Z,64.30
2018-07-05T11:12:10.892Z,64.50
2018-07-05T11:14:49.809Z,65.40
2018-07-05T11:17:28.617Z,65.40
2018-07-05T11:20:07.338Z,66.20
2018-07-05T11:22:46.200Z,66.00
2018-07-05T11:25:25.141Z,65.00
2018-07-05T11:28:04.092Z,62.80
2018-07-05T11:30:42.856Z,61.30
2018-07-05T11:33:21.599Z,61.70
2018-07-05T11:36:00.404Z,61.40
2018-07-05T11:38:39.296Z,60.50
2018-07-05T11:41:18.095Z,60.40
2018-07-05T11:43:56.784Z,60.10
2018-07-05T11:46:35.554Z,60.10
2018-07-05T11:49:14.497Z,61.00
2018-07-05T11:51:53.272Z,61.20
2018-07-05T11:54:31.957Z,62.00
2018-07-05T11:57:10.841Z,62.90
2018-07-05T11:59:49.568Z,63.10
2018-07-05T12:02:28.444Z,63.50
2018-07-05T12:05:07.207Z,63.50
2018-07-05T12:07:46.988Z,63.10
2018-07-05T12:10:25.757Z,63.10
2018-07-05T12:13:04.579Z,62.20
2018-07-05T12:15:43.477Z,62.40
2018-07-05T12:18:22.402Z,63.10
2018-07-05T12:21:01.142Z,63.90
2018-07-05T12:23:39.779Z,66.60
2018-07-05T12:26:18.719Z,66.30
2018-07-05T12:28:57.477Z,66.00
2018-07-05T12:31:36.244Z,66.20
2018-07-05T12:34:14.906Z,66.30
2018-07-05T12:36:53.836Z,67.60
2018-07-05T12:39:32.655Z,68.20
2018-07-05T12:42:11.503Z,68.20
2018-07-05T12:44:50.272Z,67.00
2018-07-05T12:47:28.951Z,65.50
2018-07-05T12:50:07.910Z,65.20
2018-07-05T12:52:46.739Z,64.00
2018-07-05T12:55:25.448Z,63.00
2018-07-05T12:58:04.252Z,62.70
2018-07-05T13:00:43.140Z,61.60
2018-07-05T13:03:22.083Z,62.00
2018-07-05T13:06:01.079Z,61.60
2018-07-05T13:08:39.889Z,61.70
2018-07-05T13:11:18.718Z,61.00
2018-07-05T13:13:57.646Z,60.20
2018-07-05T13:16:36.336Z,60.00
2018-07-05T13:19:15.375Z,61.30
2018-07-05T13:21:54.148Z,60.70
2018-07-05T13:24:32.945Z,61.30
2018-07-05T13:27:11.775Z,61.70
2018-07-05T13:29:50.620Z,62.40
2018-07-05T13:32:29.459Z,63.60
2018-07-05T13:35:08.133Z,63.60
2018-07-05T13:37:46.810Z,63.60
2018-07-05T13:40:25.573Z,62.70
2018-07-05T13:43:04.464Z,62.80
2018-07-05T13:45:43.065Z,62.80
2018-07-05T13:48:21.828Z,62.20
2018-07-05T13:51:00.689Z,62.30
2018-07-05T13:53:39.448Z,62.20
2018-07-05T13:56:18.280Z,63.00
2018-07-05T13:58:56.967Z,63.20
2018-07-05T14:01:35.901Z,63.70
2018-07-05T14:04:14.755Z,63.90
2018-07-05T14:06:53.694Z,64.00
2018-07-05T14:09:32.422Z,65.20
2018-07-05T14:12:11.437Z,66.10
2018-07-05T14:17:23.194Z,64.40
2018-07-05T14:20:01.927Z,63.30
2018-07-05T14:22:40.858Z,63.60
2018-07-05T14:25:19.883Z,63.80
2018-07-05T14:27:58.644Z,64.30
2018-07-05T14:30:37.346Z,64.50
2018-07-05T14:33:16.286Z,64.90
2018-07-05T14:35:54.897Z,65.20
2018-07-05T14:38:33.619Z,65.10
2018-07-05T14:41:12.639Z,64.70
2018-07-05T14:43:51.436Z,64.40
2018-07-05T14:46:30.289Z,64.30
2018-07-05T14:49:09.243Z,63.90
2018-07-05T14:51:48.204Z,64.00
2018-07-05T14:54:26.907Z,64.20
2018-07-05T14:57:05.784Z,63.40
2018-07-05T14:59:44.732Z,63.50
2018-07-05T15:02:23.575Z,64.40
2018-07-05T15:05:02.238Z,64.10
2018-07-05T15:07:41.059Z,63.80
2018-07-05T15:10:19.891Z,63.90
2018-07-05T15:12:58.850Z,63.80
2018-07-05T15:15:37.668Z,64.20
2018-07-05T15:18:16.559Z,63.60
2018-07-05T15:20:55.323Z,63.40
2018-07-05T15:23:34.095Z,63.80
2018-07-05T15:26:13.008Z,64.00
2018-07-05T15:28:51.885Z,63.50
2018-07-05T15:31:30.480Z,62.50
2018-07-05T15:34:09.463Z,61.50
2018-07-05T15:36:48.597Z,61.00
2018-07-05T15:39:27.676Z,60.60
2018-07-05T15:42:06.378Z,59.30
2018-07-05T15:44:45.157Z,59.60
2018-07-05T15:47:24.053Z,57.60
2018-07-05T15:50:03.369Z,56.70
2018-07-05T15:52:41.976Z,57.10
2018-07-05T15:55:20.866Z,57.20
2018-07-05T15:57:59.584Z,58.30
2018-07-05T16:00:38.431Z,59.50
2018-07-05T16:03:17.220Z,59.90
2018-07-05T16:05:56.160Z,59.30
2018-07-05T16:08:35.085Z,59.70
2018-07-05T16:11:14.004Z,60.60
2018-07-05T16:13:52.767Z,59.80
2018-07-05T16:16:31.613Z,59.70
2018-07-05T16:19:10.592Z,59.50
2018-07-05T16:21:49.389Z,59.70
2018-07-05T16:24:28.019Z,60.00
2018-07-05T16:27:06.924Z,62.60
2018-07-05T16:29:45.695Z,63.70
2018-07-05T16:32:24.571Z,63.70
2018-07-05T16:35:05.119Z,63.80
2018-07-05T16:37:43.921Z,63.40
2018-07-05T16:40:22.778Z,63.20
2018-07-05T16:43:01.580Z,63.20
2018-07-05T16:45:40.386Z,63.50
2018-07-05T16:48:21.873Z,63.60
2018-07-05T16:51:00.891Z,63.30
2018-07-05T16:53:39.739Z,63.80
2018-07-05T16:56:18.473Z,64.10
2018-07-05T16:58:57.093Z,64.40
2018-07-05T17:01:36.009Z,64.80
2018-07-05T17:04:14.733Z,65.20
2018-07-05T17:06:53.646Z,65.70
2018-07-05T17:09:32.266Z,65.40
2018-07-05T17:12:11.067Z,65.20
2018-07-05T17:14:49.906Z,65.70
2018-07-05T17:17:34.394Z,65.70
2018-07-05T17:20:13.206Z,65.60
2018-07-05T17:22:52.143Z,65.60
2018-07-05T17:25:31.111Z,65.70
2018-07-05T17:28:18.072Z,65.00
2018-07-05T17:30:56.715Z,64.80
2018-07-05T17:33:35.537Z,64.30
2018-07-05T17:36:14.354Z,64.20
2018-07-05T17:38:53.254Z,64.60
2018-07-05T17:41:32.010Z,64.80
2018-07-05T17:44:11.263Z,65.70
2018-07-05T17:46:50.146Z,65.50
2018-07-05T17:52:19.519Z,64.90
2018-07-05T17:54:59.719Z,65.00
2018-07-05T18:00:24.648Z,65.90
2018-07-05T18:03:03.321Z,66.10
2018-07-05T18:05:42.124Z,66.10
2018-07-05T18:11:07.164Z,66.50
2018-07-05T18:13:45.844Z,66.60
2018-07-05T18:16:24.595Z,66.60
2018-07-05T18:21:49.321Z,66.50
2018-07-05T18:24:27.947Z,65.80
2018-07-05T18:27:06.851Z,65.70
2018-07-05T18:29:45.562Z,65.70
2018-07-05T18:32:24.434Z,65.70
2018-07-05T18:35:03.258Z,65.70
2018-07-05T18:37:42.543Z,65.80
2018-07-05T18:45:55.149Z,67.20
2018-07-05T18:48:33.871Z,67.20
2018-07-05T18:51:12.820Z,67.60
2018-07-05T18:53:51.514Z,67.60
2018-07-05T18:56:30.107Z,68.20
2018-07-05T18:59:08.996Z,68.90
2018-07-05T19:01:47.736Z,69.20
2018-07-05T19:04:28.261Z,69.90
2018-07-05T19:07:07.141Z,69.60
2018-07-05T19:12:31.467Z,69.80
2018-07-05T19:15:10.291Z,69.60
2018-07-05T19:17:48.918Z,69.90
2018-07-05T19:20:27.795Z,69.90
2018-07-05T19:23:06.608Z,69.90
2018-07-05T19:25:45.560Z,69.70
2018-07-05T19:28:24.164Z,69.60
2018-07-05T19:31:02.967Z,69.40
2018-07-05T19:33:41.835Z,69.50
2018-07-05T19:44:37.595Z,69.90
2018-07-05T19:55:35.055Z,69.40
2018-07-05T20:01:00.811Z,69.30
2018-07-05T20:03:39.403Z,69.70
2018-07-05T20:06:20.092Z,69.50
2018-07-05T20:08:58.831Z,69.80
2018-07-05T20:11:37.725Z,70.00
2018-07-05T20:14:16.460Z,70.40
2018-07-05T20:16:55.285Z,70.60
2018-07-05T20:19:35.555Z,70.70
2018-07-05T20:22:14.466Z,70.40
2018-07-05T20:24:54.110Z,70.30
2018-07-05T20:27:32.892Z,69.90
2018-07-05T20:30:12.535Z,70.20
2018-07-05T20:32:51.132Z,71.30
2018-07-05T20:35:29.930Z,72.00
2018-07-05T20:38:08.745Z,72.40
2018-07-05T20:40:47.447Z,72.40
2018-07-05T20:43:26.514Z,72.30
2018-07-05T20:46:05.287Z,71.80
2018-07-05T20:48:44.244Z,71.40
2018-07-05T20:51:22.952Z,71.50
2018-07-05T20:54:01.867Z,71.80
2018-07-05T20:56:41.595Z,71.80
2018-07-05T20:59:20.492Z,71.90
2018-07-05T21:01:59.546Z,71.10
2018-07-05T21:04:38.171Z,70.60
2018-07-05T21:07:17.128Z,70.20
2018-07-05T21:09:56.037Z,70.00
2018-07-05T21:12:34.809Z,69.80
2018-07-05T21:15:13.556Z,69.50
2018-07-05T21:17:52.413Z,69.50
2018-07-05T21:23:17.018Z,68.90
2018-07-05T21:25:55.702Z,69.00
2018-07-05T21:28:34.636Z,68.30
2018-07-05T21:31:13.471Z,68.40
2018-07-05T21:33:52.185Z,68.30
2018-07-05T21:36:31.043Z,68.20
2018-07-05T21:39:09.870Z,68.00
2018-07-05T21:41:48.863Z,71.30
2018-07-05T21:44:32.160Z,69.10
2018-07-05T21:47:15.140Z,69.00
2018-07-05T21:49:54.271Z,68.60
2018-07-05T21:52:33.083Z,68.80
2018-07-05T21:55:18.675Z,69.20
2018-07-05T21:57:58.873Z,69.50
2018-07-05T22:00:37.731Z,69.50
2018-07-05T22:03:16.536Z,69.40
2018-07-05T22:05:55.454Z,69.80
2018-07-05T22:11:19.831Z,69.20
2018-07-05T22:13:58.717Z,69.00
2018-07-05T22:16:37.668Z,69.50
2018-07-05T22:19:16.352Z,69.70
2018-07-05T22:21:55.059Z,69.50
2018-07-05T22:24:34.011Z,69.60
2018-07-05T22:29:59.256Z,69.50
2018-07-05T22:32:38.042Z,69.40
2018-07-05T22:35:19.906Z,69.10
2018-07-05T22:37:58.712Z,69.10
2018-07-05T22:40:37.624Z,69.20
2018-07-05T22:43:16.415Z,69.60
2018-07-05T22:45:55.200Z,69.70
2018-07-05T22:48:34.048Z,69.80
2018-07-05T22:51:14.254Z,69.80
2018-07-05T22:53:53.121Z,70.00
2018-07-05T22:56:31.952Z,70.00
2018-07-05T22:59:12.100Z,70.20
2018-07-05T23:04:35.403Z,70.40
2018-07-05T23:07:14.155Z,70.10
2018-07-05T23:09:52.987Z,70.30
2018-07-05T23:12:34.011Z,71.10
2018-07-05T23:15:12.745Z,71.20
2018-07-05T23:17:51.556Z,71.30
2018-07-05T23:20:30.339Z,71.50
2018-07-05T23:23:09.179Z,71.90
2018-07-05T23:25:48.065Z,71.50
2018-07-05T23:28:26.960Z,71.70
2018-07-05T23:31:05.863Z,71.70
2018-07-05T23:33:48.483Z,71.70
2018-07-05T23:44:45.986Z,72.20
2018-07-05T23:47:24.642Z,72.40
2018-07-05T23:50:03.471Z,72.40
2018-07-05T23:52:43.723Z,72.50
2018-07-05T23:55:35.044Z,73.20
2018-07-05T23:58:13.932Z,73.20
